createdAt,value
2022-12-20T00:00:47.236Z,52605.83
2022-12-20T00:03:18.943Z,52589.76
2022-12-20T00:05:50.801Z,52598.20
2022-12-20T00:08:22.457Z,52586.54
2022-12-20T00:10:53.971Z,52598.20
2022-12-20T00:13:23.697Z,52586.14
2022-12-20T00:16:01.322Z,52596.19
2022-12-20T00:18:32.918Z,52585.74
2022-12-20T00:21:06.388Z,52611.46
2022-12-20T00:23:38.649Z,52607.84
2022-12-20T00:26:11.100Z,52604.63
2022-12-20T00:28:43.271Z,52596.99
2022-12-20T00:31:16.177Z,52575.70
2022-12-20T00:33:49.742Z,52596.99
2022-12-20T00:36:21.309Z,52593.77
2022-12-20T00:38:51.695Z,52590.16
2022-12-20T00:41:24.404Z,52594.98
2022-12-20T00:43:56.129Z,52625.13
2022-12-20T00:46:27.736Z,52607.84
2022-12-20T00:48:59.339Z,52599.40
2022-12-20T00:51:32.975Z,52606.64
2022-12-20T00:54:05.276Z,52599.40
2022-12-20T00:56:36.858Z,52601.01
2022-12-20T00:59:08.545Z,52601.01
2022-12-20T01:01:40.481Z,52620.30
2022-12-20T01:04:12.163Z,52598.60
2022-12-20T01:06:46.885Z,52607.44
2022-12-20T01:09:18.368Z,52612.66
2022-12-20T01:11:48.243Z,52599.40
2022-12-20T01:14:20.151Z,52598.59
2022-12-20T01:16:51.796Z,52607.84
2022-12-20T01:19:23.371Z,52604.23
2022-12-20T01:21:55.140Z,52599.40
2022-12-20T01:24:26.539Z,52596.99
2022-12-20T01:26:56.374Z,52594.58
2022-12-20T01:29:28.053Z,52596.19
2022-12-20T01:31:59.647Z,52600.61
2022-12-20T01:34:31.196Z,52596.19
2022-12-20T01:37:03.013Z,52582.52
2022-12-20T01:39:34.498Z,52586.54
2022-12-20T01:42:04.463Z,52605.83
2022-12-20T01:45:01.670Z,52598.60
2022-12-20T01:47:34.105Z,52599.00
2022-12-20T01:50:05.833Z,52611.05
2022-12-20T01:52:38.803Z,52591.76
2022-12-20T01:55:12.780Z,52608.24
2022-12-20T01:57:46.876Z,52591.36
2022-12-20T02:00:19.811Z,52598.20
2022-12-20T02:02:52.257Z,52619.49
2022-12-20T02:05:24.717Z,52607.04
2022-12-20T02:07:57.502Z,52609.45
2022-12-20T02:10:31.404Z,52590.55
2022-12-20T02:13:06.799Z,52609.05
2022-12-20T02:15:47.274Z,52623.92
2022-12-20T02:18:23.686Z,52587.75
2022-12-20T02:21:23.482Z,52589.36
2022-12-20T02:24:27.396Z,52589.76
2022-12-20T02:27:14.414Z,52596.99
2022-12-20T02:30:08.226Z,52593.77
2022-12-20T02:32:43.138Z,52598.60
2022-12-20T02:35:16.788Z,52617.89
2022-12-20T02:37:53.372Z,52601.01
2022-12-20T02:40:27.272Z,52599.40
2022-12-20T02:43:00.563Z,52599.00
2022-12-20T02:45:35.502Z,52609.04
2022-12-20T02:48:09.015Z,52590.56
2022-12-20T02:50:42.031Z,52606.23
2022-12-20T02:53:14.060Z,52613.47
2022-12-20T02:55:49.675Z,52606.64
2022-12-20T02:58:23.171Z,52598.60
2022-12-20T03:00:55.304Z,52599.00
2022-12-20T03:03:26.846Z,52609.86
2022-12-20T03:05:58.592Z,52588.55
2022-12-20T03:08:30.410Z,52608.64
2022-12-20T03:11:02.112Z,52605.03
2022-12-20T03:13:35.541Z,52599.80
2022-12-20T03:16:12.167Z,52601.01
2022-12-20T03:18:45.665Z,52604.63
2022-12-20T03:21:17.259Z,52612.26
2022-12-20T03:23:47.197Z,52606.23
2022-12-20T03:26:18.881Z,52617.89
2022-12-20T03:28:54.307Z,52600.61
2022-12-20T03:31:27.333Z,52616.68
2022-12-20T03:33:59.367Z,52594.98
2022-12-20T03:36:31.296Z,52597.39
2022-12-20T03:39:05.943Z,52614.68
2022-12-20T03:41:40.763Z,52606.64
2022-12-20T03:44:12.740Z,52613.47
2022-12-20T03:46:44.932Z,52606.64
2022-12-20T03:49:16.735Z,52614.27
2022-12-20T03:51:51.978Z,52607.04
2022-12-20T03:54:23.678Z,52605.83
2022-12-20T03:57:06.603Z,52611.46
2022-12-20T03:59:38.673Z,52602.62
2022-12-20T04:02:10.995Z,52618.70
2022-12-20T04:04:42.807Z,52592.16
2022-12-20T04:07:14.505Z,52619.10
2022-12-20T04:09:49.121Z,52610.66
2022-12-20T04:12:19.024Z,52627.94
2022-12-20T04:14:50.425Z,52596.99
2022-12-20T04:17:20.203Z,52607.44
2022-12-20T04:19:52.347Z,52629.54
2022-12-20T04:22:23.994Z,52592.17
2022-12-20T04:25:00.545Z,52619.50
2022-12-20T04:27:36.822Z,52612.67
2022-12-20T04:30:12.558Z,52629.54
2022-12-20T04:32:44.179Z,52592.57
2022-12-20T04:35:15.767Z,52603.82
2022-12-20T04:37:47.506Z,52618.29
2022-12-20T04:40:19.574Z,52610.26
2022-12-20T04:42:53.852Z,52605.02
2022-12-20T04:45:23.592Z,52617.89
2022-12-20T04:47:55.917Z,52615.88
2022-12-20T04:50:31.329Z,52608.64
2022-12-20T04:53:20.598Z,52603.02
2022-12-20T04:55:52.409Z,52613.07
2022-12-20T04:58:23.946Z,52612.26
2022-12-20T05:00:54.104Z,52607.45
2022-12-20T05:03:30.527Z,52618.29
2022-12-20T05:06:02.407Z,52616.68
2022-12-20T05:08:34.145Z,52615.48
2022-12-20T05:11:06.158Z,52595.78
2022-12-20T05:13:37.829Z,52607.84
2022-12-20T05:16:09.717Z,52629.14
2022-12-20T05:18:48.200Z,52615.88
2022-12-20T05:21:38.655Z,52613.87
2022-12-20T05:24:30.023Z,52628.34
2022-12-20T05:27:10.720Z,52605.43
2022-12-20T05:29:42.990Z,52626.33
2022-12-20T05:32:15.114Z,52615.48
2022-12-20T05:34:47.225Z,52626.33
2022-12-20T05:37:20.039Z,52617.89
2022-12-20T05:39:51.851Z,52608.64
2022-12-20T05:42:26.068Z,52614.68
2022-12-20T05:44:57.913Z,52619.90
2022-12-20T05:47:31.116Z,52605.83
2022-12-20T05:50:12.282Z,52615.48
2022-12-20T05:53:11.809Z,52618.70
2022-12-20T05:55:48.867Z,52620.30
2022-12-20T05:58:20.815Z,52611.86
2022-12-20T06:00:57.719Z,52605.43
2022-12-20T06:03:30.038Z,52615.88
2022-12-20T06:06:02.267Z,52617.89
2022-12-20T06:08:36.694Z,52610.66
2022-12-20T06:11:11.980Z,52618.29
2022-12-20T06:13:53.075Z,52605.43
2022-12-20T06:16:26.198Z,52615.88
2022-12-20T06:19:00.947Z,52636.78
2022-12-20T06:21:33.290Z,52625.93
2022-12-20T06:24:05.364Z,52613.87
2022-12-20T06:26:37.543Z,52626.73
2022-12-20T06:29:14.397Z,52624.73
2022-12-20T06:31:51.383Z,52620.30
2022-12-20T06:34:22.829Z,52610.25
2022-12-20T06:36:55.113Z,52628.74
2022-12-20T06:39:30.637Z,52624.72
2022-12-20T06:42:08.589Z,52599.00
2022-12-20T06:44:40.923Z,52622.71
2022-12-20T06:47:12.681Z,52642.01
2022-12-20T06:49:44.313Z,52625.13
2022-12-20T06:52:24.133Z,52618.70
2022-12-20T06:54:59.013Z,52618.70
2022-12-20T06:57:29.242Z,52623.11
2022-12-20T07:00:01.216Z,52605.03
2022-12-20T07:02:32.773Z,52615.07
2022-12-20T07:05:05.471Z,52613.47
2022-12-20T07:07:44.368Z,52605.43
2022-12-20T07:10:16.910Z,52630.35
2022-12-20T07:12:48.910Z,52618.70
2022-12-20T07:15:22.481Z,52618.70
2022-12-20T07:17:53.829Z,52601.41
2022-12-20T07:20:23.956Z,52619.09
2022-12-20T07:22:55.872Z,52624.73
2022-12-20T07:25:27.661Z,52605.83
2022-12-20T07:27:59.222Z,52612.66
2022-12-20T07:30:29.016Z,52602.21
2022-12-20T07:33:00.751Z,52605.83
2022-12-20T07:35:32.293Z,52617.89
2022-12-20T07:38:04.300Z,52615.48
2022-12-20T07:40:36.121Z,52613.07
2022-12-20T07:43:08.760Z,52614.27
2022-12-20T07:45:40.350Z,52607.84
2022-12-20T07:48:16.395Z,52610.25
2022-12-20T07:50:49.823Z,52611.46
2022-12-20T07:53:21.577Z,52612.26
2022-12-20T07:55:53.206Z,52621.11
2022-12-20T07:58:23.056Z,52631.55
2022-12-20T08:00:55.360Z,52613.88
2022-12-20T08:03:27.943Z,52619.50
2022-12-20T08:05:59.759Z,52618.29
2022-12-20T08:08:31.220Z,52632.36
2022-12-20T08:11:00.988Z,52626.73
2022-12-20T08:13:33.214Z,52613.07
2022-12-20T08:16:04.881Z,52593.77
2022-12-20T08:18:36.468Z,52612.26
2022-12-20T08:21:08.826Z,52603.43
2022-12-20T08:23:40.428Z,52604.63
2022-12-20T08:26:12.024Z,52603.02
2022-12-20T08:28:43.656Z,52607.04
2022-12-20T08:31:15.148Z,52602.62
2022-12-20T08:33:46.998Z,52588.15
2022-12-20T08:36:18.467Z,52592.97
2022-12-20T08:38:48.257Z,52593.77
2022-12-20T08:41:20.920Z,52602.62
2022-12-20T08:43:52.428Z,52585.34
2022-12-20T08:46:22.463Z,52575.70
2022-12-20T08:48:54.193Z,52607.84
2022-12-20T08:51:26.259Z,52595.79
2022-12-20T08:53:57.897Z,52596.99
2022-12-20T08:56:29.893Z,52620.30
2022-12-20T08:59:01.619Z,52580.51
2022-12-20T09:01:34.538Z,52580.51
2022-12-20T09:04:07.421Z,52615.48
2022-12-20T09:06:39.347Z,52581.32
2022-12-20T09:09:11.114Z,52586.54
2022-12-20T09:11:44.034Z,52584.13
2022-12-20T09:14:14.202Z,52577.30
2022-12-20T09:16:45.619Z,52596.59
2022-12-20T09:19:15.655Z,52594.98
2022-12-20T09:21:47.125Z,52590.56
2022-12-20T09:24:17.537Z,52584.94
2022-12-20T09:26:50.769Z,52576.09
2022-12-20T09:29:29.609Z,52585.74
2022-12-20T09:32:03.757Z,52588.15
2022-12-20T09:34:35.344Z,52567.66
2022-12-20T09:37:19.763Z,52572.48
2022-12-20T09:39:53.488Z,52590.97
2022-12-20T09:42:26.176Z,52562.02
2022-12-20T09:44:59.690Z,52568.05
2022-12-20T09:47:31.107Z,52544.74
2022-12-20T09:50:02.822Z,52566.05
2022-12-20T09:52:40.366Z,52560.02
2022-12-20T09:55:18.989Z,52532.69
2022-12-20T09:57:56.940Z,52549.97
2022-12-20T10:00:30.797Z,52546.76
2022-12-20T10:03:10.181Z,52540.32
2022-12-20T10:05:48.002Z,52551.98
2022-12-20T10:08:30.380Z,52541.52
2022-12-20T10:11:03.972Z,52527.06
2022-12-20T10:13:44.566Z,52529.48
2022-12-20T10:16:24.534Z,52515.41
2022-12-20T10:19:02.978Z,52522.24
2022-12-20T10:21:39.160Z,52530.68
2022-12-20T10:24:13.951Z,52521.84
2022-12-20T10:26:45.638Z,52529.07
2022-12-20T10:29:16.162Z,52513.39
2022-12-20T10:31:47.672Z,52511.79
2022-12-20T10:34:17.567Z,52508.98
2022-12-20T10:36:49.582Z,52516.61
2022-12-20T10:39:21.894Z,52510.99
2022-12-20T10:41:53.826Z,52492.90
2022-12-20T10:44:26.976Z,52511.39
2022-12-20T10:46:59.502Z,52490.09
2022-12-20T10:49:35.534Z,52506.16
2022-12-20T10:52:14.991Z,52492.90
2022-12-20T10:54:47.014Z,52481.65
2022-12-20T10:57:21.874Z,52473.21
2022-12-20T10:59:54.332Z,52473.21
2022-12-20T11:02:37.227Z,52491.70
2022-12-20T11:05:25.392Z,52486.07
2022-12-20T11:10:50.876Z,52465.57
2022-12-20T11:13:29.310Z,52455.13
2022-12-20T11:16:02.042Z,52449.90
2022-12-20T11:18:39.846Z,52467.58
2022-12-20T11:21:27.400Z,52474.41
2022-12-20T11:24:03.688Z,52461.15
2022-12-20T11:26:42.600Z,52447.09
2022-12-20T11:29:22.214Z,52465.57
2022-12-20T11:31:58.401Z,52446.69
2022-12-20T11:34:36.112Z,52452.31
2022-12-20T11:37:16.161Z,52452.71
2022-12-20T11:39:59.022Z,52453.92
2022-12-20T11:42:33.561Z,52449.50
2022-12-20T11:45:09.628Z,52473.61
2022-12-20T11:48:04.287Z,52472.80
2022-12-20T11:50:47.214Z,52475.62
2022-12-20T11:53:24.639Z,52476.82
2022-12-20T11:55:58.076Z,52478.03
2022-12-20T11:58:31.163Z,52466.77
2022-12-20T12:01:05.095Z,52490.09
2022-12-20T12:03:39.269Z,52474.82
2022-12-20T12:06:12.749Z,52472.00
2022-12-20T12:08:47.105Z,52485.67
2022-12-20T12:12:03.824Z,52471.60
2022-12-20T12:14:16.097Z,52458.34
2022-12-20T12:16:49.351Z,52462.76
2022-12-20T12:19:20.996Z,52448.70
2022-12-20T12:21:51.696Z,52451.51
2022-12-20T12:24:26.944Z,52451.11
2022-12-20T12:26:59.135Z,52457.94
2022-12-20T12:29:31.312Z,52445.48
2022-12-20T12:32:04.241Z,52463.96
2022-12-20T12:34:46.592Z,52461.55
2022-12-20T12:37:38.671Z,52451.51
2022-12-20T12:40:34.195Z,52457.94
2022-12-20T12:43:38.421Z,52443.47
2022-12-20T12:46:15.468Z,52456.73
2022-12-20T12:48:50.721Z,52451.91
2022-12-20T12:51:27.309Z,52457.14
2022-12-20T12:54:19.653Z,52464.37
2022-12-20T12:56:51.247Z,52461.15
2022-12-20T12:59:41.676Z,52443.88
2022-12-20T13:02:36.932Z,52469.99
2022-12-20T13:05:36.032Z,52483.66
2022-12-20T13:08:10.796Z,52492.10
2022-12-20T13:11:14.950Z,52511.79
2022-12-20T13:13:46.534Z,52513.80
2022-12-20T13:16:48.685Z,52513.39
2022-12-20T13:19:31.784Z,52507.77
2022-12-20T13:22:20.369Z,52531.89
2022-12-20T13:24:59.157Z,52500.53
2022-12-20T13:27:39.530Z,52516.21
2022-12-20T13:30:30.859Z,52524.25
2022-12-20T13:33:26.852Z,52527.87
2022-12-20T13:36:06.419Z,52543.94
2022-12-20T13:38:53.738Z,52526.66
2022-12-20T13:41:37.809Z,52534.70
2022-12-20T13:44:36.559Z,52543.54
2022-12-20T13:47:18.071Z,52540.32
2022-12-20T13:49:49.911Z,52556.00
2022-12-20T13:52:25.869Z,52550.38
2022-12-20T13:54:58.658Z,52539.52
2022-12-20T13:57:33.108Z,52528.68
2022-12-20T14:00:08.094Z,52563.64
2022-12-20T14:02:43.517Z,52547.56
2022-12-20T14:05:21.485Z,52541.93
2022-12-20T14:07:56.321Z,52565.64
2022-12-20T14:10:29.068Z,52565.64
2022-12-20T14:13:00.673Z,52553.59
2022-12-20T14:15:33.631Z,52562.83
2022-12-20T14:18:17.940Z,52559.61
2022-12-20T14:20:50.446Z,52583.73
2022-12-20T14:23:23.198Z,52556.00
2022-12-20T14:25:55.673Z,52555.20
2022-12-20T14:28:32.660Z,52561.63
2022-12-20T14:31:04.515Z,52552.38
2022-12-20T14:33:38.552Z,52561.63
2022-12-20T14:36:19.797Z,52563.23
2022-12-20T14:38:52.239Z,52568.05
2022-12-20T14:41:35.175Z,52557.60
2022-12-20T14:44:19.025Z,52560.42
2022-12-20T14:46:54.502Z,52563.23
2022-12-20T14:49:27.343Z,52564.04
2022-12-20T14:52:09.105Z,52566.45
2022-12-20T14:55:12.948Z,52544.74
2022-12-20T14:57:40.290Z,52551.98
2022-12-20T15:00:21.546Z,52552.38
2022-12-20T15:02:59.637Z,52564.84
2022-12-20T15:05:52.821Z,52551.98
2022-12-20T15:08:27.477Z,52560.42
2022-12-20T15:11:04.019Z,52569.26
2022-12-20T15:13:37.039Z,52574.08
2022-12-20T15:16:15.216Z,52563.23
2022-12-20T15:18:46.621Z,52570.87
2022-12-20T15:21:20.485Z,52561.23
2022-12-20T15:23:53.612Z,52548.36
2022-12-20T15:26:26.112Z,52562.43
2022-12-20T15:28:57.946Z,52558.01
2022-12-20T15:31:33.663Z,52568.86
2022-12-20T15:34:06.593Z,52561.63
2022-12-20T15:36:38.661Z,52570.06
2022-12-20T15:39:12.925Z,52561.63
2022-12-20T15:41:46.660Z,52566.04
2022-12-20T15:44:20.862Z,52563.23
2022-12-20T15:46:53.619Z,52564.04
2022-12-20T15:49:26.325Z,52578.10
2022-12-20T15:51:57.852Z,52569.26
2022-12-20T15:54:30.563Z,52558.81
2022-12-20T15:57:03.810Z,52562.82
2022-12-20T16:02:29.896Z,52548.36
2022-12-20T16:05:02.007Z,52568.86
2022-12-20T16:07:33.796Z,52582.12
2022-12-20T16:10:05.753Z,52570.07
2022-12-20T16:12:38.852Z,52549.16
2022-12-20T16:15:15.175Z,52560.02
2022-12-20T16:17:46.719Z,52572.48
2022-12-20T16:20:19.729Z,52576.90
2022-12-20T16:22:51.969Z,52548.36
2022-12-20T16:25:29.774Z,52549.57
2022-12-20T16:28:01.186Z,52560.02
2022-12-20T16:30:32.873Z,52570.47
2022-12-20T16:33:04.645Z,52558.81
2022-12-20T16:35:37.591Z,52573.27
2022-12-20T16:38:10.374Z,52553.99
2022-12-20T16:40:41.902Z,52577.70
2022-12-20T16:43:13.390Z,52559.61
2022-12-20T16:45:44.828Z,52568.86
2022-12-20T16:48:16.409Z,52553.19
2022-12-20T16:50:47.963Z,52570.87
2022-12-20T16:53:19.625Z,52562.43
2022-12-20T16:55:49.399Z,52567.65
2022-12-20T16:58:23.727Z,52559.21
2022-12-20T17:01:00.627Z,52557.61
2022-12-20T17:03:33.010Z,52570.06
2022-12-20T17:06:05.304Z,52565.64
2022-12-20T17:11:25.272Z,52573.28
2022-12-20T17:13:57.514Z,52566.45
2022-12-20T17:16:29.311Z,52560.42
2022-12-20T17:19:01.152Z,52556.00
2022-12-20T17:24:22.078Z,52555.20
2022-12-20T17:26:53.706Z,52558.01
2022-12-20T17:29:25.491Z,52575.69
2022-12-20T17:31:57.104Z,52562.43
2022-12-20T17:34:30.424Z,52552.78
2022-12-20T17:37:02.063Z,52555.20
2022-12-20T17:39:33.942Z,52571.68
2022-12-20T17:42:05.526Z,52551.57
2022-12-20T17:44:37.959Z,52574.89
2022-12-20T17:47:09.526Z,52560.02
2022-12-20T17:49:41.158Z,52559.21
2022-12-20T17:52:12.959Z,52543.14
2022-12-20T17:54:42.693Z,52562.43
2022-12-20T17:57:17.201Z,52566.85
2022-12-20T17:59:48.703Z,52575.70
2022-12-20T18:02:28.123Z,52563.23
2022-12-20T18:05:00.012Z,52560.82
2022-12-20T18:07:29.849Z,52555.59
2022-12-20T18:10:01.339Z,52560.82
2022-12-20T18:12:37.421Z,52563.23
2022-12-20T18:15:11.132Z,52557.20
2022-12-20T18:17:42.880Z,52560.42
2022-12-20T18:20:15.889Z,52536.30
2022-12-20T18:22:47.635Z,52547.16
2022-12-20T18:25:19.363Z,52558.41
2022-12-20T18:27:50.921Z,52556.80
2022-12-20T18:30:21.473Z,52552.78
2022-12-20T18:32:53.164Z,52559.21
2022-12-20T18:35:24.567Z,52554.79
2022-12-20T18:37:56.417Z,52562.82
2022-12-20T18:40:28.135Z,52550.37
2022-12-20T18:43:05.838Z,52549.16
2022-12-20T18:45:39.229Z,52552.38
2022-12-20T18:48:12.080Z,52566.85
2022-12-20T18:50:44.225Z,52551.57
2022-12-20T18:53:15.839Z,52560.82
2022-12-20T18:55:47.985Z,52557.61
2022-12-20T18:58:19.853Z,52557.61
2022-12-20T19:00:54.854Z,52559.21
2022-12-20T19:03:26.685Z,52561.63
2022-12-20T19:05:58.470Z,52565.24
2022-12-20T19:08:30.759Z,52568.86
2022-12-20T19:11:02.868Z,52547.55
2022-12-20T19:13:34.885Z,52563.23
2022-12-20T19:16:08.500Z,52549.57
2022-12-20T19:18:41.384Z,52547.96
2022-12-20T19:21:13.999Z,52556.40
2022-12-20T19:23:46.905Z,52545.15
2022-12-20T19:26:18.357Z,52553.19
2022-12-20T19:28:50.021Z,52533.09
2022-12-20T19:31:24.244Z,52566.85
2022-12-20T19:33:56.556Z,52543.14
2022-12-20T19:36:29.263Z,52549.57
2022-12-20T19:39:02.562Z,52544.74
2022-12-20T19:41:35.108Z,52569.26
2022-12-20T19:44:07.576Z,52553.99
2022-12-20T19:46:39.379Z,52562.43
2022-12-20T19:49:11.096Z,52552.78
2022-12-20T19:51:42.675Z,52561.22
2022-12-20T19:54:12.692Z,52563.64
2022-12-20T19:56:44.382Z,52541.13
2022-12-20T19:59:16.879Z,52562.02
2022-12-20T20:01:48.939Z,52558.41
2022-12-20T20:04:20.625Z,52558.41
2022-12-20T20:06:52.662Z,52535.90
2022-12-20T20:09:24.485Z,52550.37
2022-12-20T20:11:56.145Z,52555.20
2022-12-20T20:14:27.979Z,52562.03
2022-12-20T20:16:58.100Z,52560.82
2022-12-20T20:19:29.878Z,52574.89
2022-12-20T20:22:01.461Z,52531.08
2022-12-20T20:24:31.376Z,52543.14
2022-12-20T20:27:03.319Z,52558.41
2022-12-20T20:29:35.219Z,52567.65
2022-12-20T20:32:07.907Z,52545.95
2022-12-20T20:34:39.723Z,52552.38
2022-12-20T20:37:11.670Z,52555.20
2022-12-20T20:39:43.925Z,52555.20
2022-12-20T20:42:18.518Z,52549.57
2022-12-20T20:44:54.607Z,52558.41
2022-12-20T20:47:24.422Z,52551.57
2022-12-20T20:49:55.904Z,52560.02
2022-12-20T20:52:26.127Z,52557.21
2022-12-20T20:54:57.735Z,52547.16
2022-12-20T20:57:27.892Z,52555.60
2022-12-20T20:59:59.436Z,52548.76
2022-12-20T21:02:31.593Z,52551.58
2022-12-20T21:07:55.673Z,52551.18
2022-12-20T21:10:30.304Z,52548.36
2022-12-20T21:13:02.095Z,52558.01
2022-12-20T21:15:34.737Z,52550.37
2022-12-20T21:18:06.563Z,52554.39
2022-12-20T21:20:38.776Z,52537.11
2022-12-20T21:23:11.435Z,52549.97
2022-12-20T21:25:43.138Z,52546.35
2022-12-20T21:28:20.977Z,52550.37
2022-12-20T21:31:01.044Z,52548.36
2022-12-20T21:33:32.879Z,52555.99
2022-12-20T21:36:05.966Z,52561.63
2022-12-20T21:38:37.534Z,52535.50
2022-12-20T21:41:08.267Z,52545.95
2022-12-20T21:43:40.045Z,52550.77
2022-12-20T21:46:11.921Z,52548.76
2022-12-20T21:48:43.931Z,52545.14
2022-12-20T21:51:16.349Z,52567.65
2022-12-20T21:53:48.637Z,52553.99
2022-12-20T21:56:20.367Z,52531.88
2022-12-20T21:58:51.032Z,52552.38
2022-12-20T22:01:23.642Z,52552.79
2022-12-20T22:03:55.912Z,52535.50
2022-12-20T22:06:28.401Z,52544.74
2022-12-20T22:09:01.554Z,52554.79
2022-12-20T22:11:33.276Z,52551.98
2022-12-20T22:14:04.714Z,52564.84
2022-12-20T22:16:36.344Z,52556.40
2022-12-20T22:19:09.241Z,52550.37
2022-12-20T22:21:41.134Z,52549.98
2022-12-20T22:24:13.021Z,52541.53
2022-12-20T22:26:44.952Z,52574.08
2022-12-20T22:29:16.506Z,52539.12
2022-12-20T22:31:46.916Z,52538.31
2022-12-20T22:34:19.003Z,52568.46
2022-12-20T22:36:50.759Z,52546.76
2022-12-20T22:39:22.356Z,52554.39
2022-12-20T22:41:52.218Z,52559.21
2022-12-20T22:44:23.942Z,52534.70
2022-12-20T22:49:45.121Z,52548.36
2022-12-20T22:52:17.061Z,52549.17
2022-12-20T22:54:48.716Z,52540.73
2022-12-20T22:57:18.583Z,52562.02
2022-12-20T22:59:50.563Z,52546.76
2022-12-20T23:02:22.548Z,52563.64
2022-12-20T23:04:54.457Z,52559.21
2022-12-20T23:07:26.116Z,52556.80
2022-12-20T23:09:57.854Z,52543.14
2022-12-20T23:12:47.006Z,52538.31
2022-12-20T23:15:36.574Z,52555.59
2022-12-20T23:18:08.365Z,52536.71
2022-12-20T23:20:57.715Z,52539.93
2022-12-20T23:23:29.233Z,52558.81
2022-12-20T23:26:09.436Z,52557.61
2022-12-20T23:28:41.211Z,52533.49
2022-12-20T23:31:12.883Z,52543.14
2022-12-20T23:33:44.505Z,52549.57
2022-12-20T23:36:16.039Z,52552.78
2022-12-20T23:38:46.355Z,52540.73
2022-12-20T23:41:18.473Z,52547.55
2022-12-20T23:43:49.819Z,52567.65
2022-12-20T23:46:21.990Z,52555.59
2022-12-20T23:48:54.116Z,52538.32
2022-12-20T23:51:26.064Z,52553.19
2022-12-20T23:53:57.507Z,52559.21
2022-12-20T23:56:29.177Z,52566.45
2022-12-20T23:59:02.535Z,52559.21
